createdAt,value
2018-01-07T00:03:34.964Z,14.37
2018-01-07T00:08:37.721Z,17.40
2018-01-07T00:13:40.457Z,16.87
2018-01-07T00:18:43.591Z,15.03
2018-01-07T00:23:46.372Z,15.60
2018-01-07T00:28:49.784Z,18.30
2018-01-07T00:33:52.474Z,17.50
2018-01-07T00:38:56.566Z,16.00
2018-01-07T00:43:59.187Z,19.80
2018-01-07T00:49:02.220Z,20.10
2018-01-07T00:54:04.829Z,13.67
2018-01-07T00:59:07.912Z,20.37
2018-01-07T01:04:10.583Z,20.80
2018-01-07T01:09:13.530Z,17.40
2018-01-07T01:14:16.150Z,24.57
2018-01-07T01:19:19.551Z,20.23
2018-01-07T01:24:22.186Z,25.60
2018-01-07T01:29:24.889Z,20.77
2018-01-07T01:34:27.568Z,23.80
2018-01-07T01:39:30.272Z,28.00
2018-01-07T01:44:32.905Z,27.80
2018-01-07T01:49:36.121Z,29.17
2018-01-07T01:54:38.883Z,26.00
2018-01-07T01:59:42.300Z,26.90
2018-01-07T02:04:44.985Z,26.80
2018-01-07T02:09:48.116Z,24.93
2018-01-07T02:14:50.886Z,24.83
2018-01-07T02:19:54.737Z,23.43
2018-01-07T02:24:57.430Z,24.43
2018-01-07T02:30:02.715Z,22.23
2018-01-07T02:35:05.326Z,18.67
2018-01-07T02:40:08.227Z,18.87
2018-01-07T02:45:10.884Z,20.33
2018-01-07T02:50:13.574Z,19.93
2018-01-07T02:55:17.022Z,16.47
2018-01-07T03:00:20.211Z,22.30
2018-01-07T03:05:22.876Z,17.47
2018-01-07T03:10:25.522Z,16.90
2018-01-07T03:15:28.181Z,17.90
2018-01-07T03:20:31.068Z,19.63
2018-01-07T03:25:33.683Z,17.90
2018-01-07T03:30:36.592Z,15.10
2018-01-07T03:35:40.035Z,16.53
2018-01-07T03:40:43.049Z,17.90
2018-01-07T03:45:45.751Z,11.47
2018-01-07T03:50:48.873Z,12.80
2018-01-07T03:55:51.526Z,15.13
2018-01-07T04:00:55.502Z,14.87
2018-01-07T04:05:58.161Z,12.63
2018-01-07T04:11:01.721Z,16.03
2018-01-07T04:16:04.373Z,16.23
2018-01-07T04:21:08.327Z,12.03
2018-01-07T04:26:11.032Z,13.00
2018-01-07T04:31:14.144Z,14.43
2018-01-07T04:36:16.843Z,12.47
2018-01-07T04:41:19.976Z,10.60
2018-01-07T04:46:22.671Z,13.07
2018-01-07T04:51:25.465Z,13.77
2018-01-07T04:56:28.084Z,10.43
2018-01-07T05:01:31.678Z,11.77
2018-01-07T05:06:34.474Z,15.47
2018-01-07T05:11:38.129Z,13.43
2018-01-07T05:16:40.745Z,13.50
2018-01-07T05:21:44.033Z,14.50
2018-01-07T05:26:46.714Z,13.73
2018-01-07T05:31:49.898Z,13.13
2018-01-07T05:36:52.582Z,12.50
2018-01-07T05:41:55.293Z,12.83
2018-01-07T05:46:58.724Z,12.77
2018-01-07T05:52:03.045Z,12.03
2018-01-07T05:57:06.443Z,12.37
2018-01-07T06:02:09.125Z,12.33
2018-01-07T06:07:11.817Z,11.90
2018-01-07T06:12:14.822Z,11.87
2018-01-07T06:17:17.447Z,11.17
2018-01-07T06:22:21.076Z,16.33
2018-01-07T06:27:24.518Z,16.97
2018-01-07T06:32:28.032Z,14.03
2018-01-07T06:37:30.683Z,11.67
2018-01-07T06:42:33.426Z,15.57
2018-01-07T06:47:36.343Z,13.67
2018-01-07T06:52:40.205Z,13.60
2018-01-07T06:57:42.823Z,14.37
2018-01-07T07:02:45.810Z,13.43
2018-01-07T07:07:49.102Z,12.63
2018-01-07T07:12:52.983Z,11.70
2018-01-07T07:17:55.639Z,12.47
2018-01-07T07:22:58.722Z,14.07
2018-01-07T07:28:02.154Z,9.93
2018-01-07T07:33:06.503Z,9.40
2018-01-07T07:38:09.147Z,10.63
2018-01-07T07:43:12.729Z,11.03
2018-01-07T07:48:15.424Z,10.77
2018-01-07T07:53:18.124Z,8.13
2018-01-07T07:58:20.757Z,9.60
2018-01-07T08:03:23.859Z,7.50
2018-01-07T08:08:26.471Z,8.90
2018-01-07T08:13:29.254Z,7.47
2018-01-07T08:18:32.639Z,7.67
2018-01-07T08:23:36.185Z,7.53
2018-01-07T08:28:39.833Z,8.00
2018-01-07T08:33:44.342Z,7.07
2018-01-07T08:38:47.342Z,5.93
2018-01-07T08:43:50.261Z,6.10
2018-01-07T08:48:52.891Z,8.07
2018-01-07T08:53:56.467Z,7.00
2018-01-07T08:58:59.110Z,8.07
2018-01-07T09:04:02.197Z,10.67
2018-01-07T09:09:04.858Z,5.00
2018-01-07T09:14:09.230Z,4.97
2018-01-07T09:19:12.021Z,4.73
2018-01-07T09:24:15.552Z,7.37
2018-01-07T09:29:18.178Z,5.67
2018-01-07T09:34:21.265Z,5.40
2018-01-07T09:39:23.915Z,5.93
2018-01-07T09:44:26.930Z,4.03
2018-01-07T09:49:30.313Z,4.40
2018-01-07T09:54:33.675Z,5.17
2018-01-07T09:59:37.099Z,3.97
2018-01-07T10:04:40.386Z,4.30
2018-01-07T10:09:43.933Z,4.20
2018-01-07T10:14:47.588Z,6.50
2018-01-07T10:19:50.198Z,9.60
2018-01-07T10:24:53.513Z,4.90
2018-01-07T10:29:56.220Z,4.83
2018-01-07T10:34:59.557Z,3.33
2018-01-07T10:40:02.179Z,3.93
2018-01-07T10:45:06.125Z,4.83
2018-01-07T10:50:09.703Z,5.57
2018-01-07T10:55:14.483Z,3.83
2018-01-07T11:00:17.267Z,3.40
2018-01-07T11:05:20.957Z,3.90
2018-01-07T11:10:24.330Z,4.17
2018-01-07T11:15:27.886Z,3.07
2018-01-07T11:20:30.560Z,5.30
2018-01-07T11:25:33.975Z,3.27
2018-01-07T11:30:36.781Z,2.90
2018-01-07T11:35:39.752Z,3.20
2018-01-07T11:40:43.262Z,3.83
2018-01-07T11:45:47.411Z,3.90
2018-01-07T11:50:50.845Z,3.40
2018-01-07T11:55:54.367Z,3.30
2018-01-07T12:00:57.054Z,3.70
2018-01-07T12:06:01.000Z,4.07
2018-01-07T12:11:03.900Z,3.10
2018-01-07T12:16:08.076Z,4.03
2018-01-07T12:21:11.411Z,3.57
2018-01-07T12:26:15.809Z,5.53
2018-01-07T12:31:18.619Z,4.27
2018-01-07T12:36:22.164Z,4.70
2018-01-07T12:41:24.869Z,4.57
2018-01-07T12:46:29.541Z,4.77
2018-01-07T12:51:32.280Z,4.53
2018-01-07T12:56:36.420Z,5.67
2018-01-07T13:01:41.021Z,4.03
2018-01-07T13:06:44.608Z,4.07
2018-01-07T13:11:48.086Z,4.97
2018-01-07T13:16:51.182Z,5.67
2018-01-07T13:21:54.001Z,4.40
2018-01-07T13:26:58.007Z,6.80
2018-01-07T13:32:01.135Z,5.47
2018-01-07T13:37:06.708Z,7.10
2018-01-07T13:42:12.096Z,5.77
2018-01-07T13:47:16.405Z,8.33
2018-01-07T13:52:19.725Z,6.53
2018-01-07T13:57:24.669Z,7.17
2018-01-07T14:02:28.821Z,7.70
2018-01-07T14:07:31.915Z,7.13
2018-01-07T14:12:35.892Z,6.03
2018-01-07T14:17:39.175Z,6.73
2018-01-07T14:22:41.959Z,7.20
2018-01-07T14:27:45.045Z,7.37
2018-01-07T14:32:48.814Z,5.97
2018-01-07T14:37:51.760Z,6.13
2018-01-07T14:42:54.849Z,7.67
2018-01-07T14:47:58.222Z,7.47
2018-01-07T14:53:01.616Z,6.73
2018-01-07T14:58:05.246Z,7.83
2018-01-07T15:03:08.293Z,8.73
2018-01-07T15:08:11.193Z,6.90
2018-01-07T15:13:14.190Z,6.83
2018-01-07T15:18:18.975Z,6.70
2018-01-07T15:23:22.124Z,7.53
2018-01-07T15:28:26.171Z,27.60
2018-01-07T15:33:29.699Z,8.90
2018-01-07T15:38:32.607Z,7.90
2018-01-07T15:43:35.309Z,7.57
2018-01-07T15:48:39.623Z,7.77
2018-01-07T15:53:43.611Z,7.80
2018-01-07T15:58:46.988Z,7.50
2018-01-07T16:03:49.632Z,10.33
2018-01-07T16:08:53.518Z,8.53
2018-01-07T16:13:56.517Z,9.87
2018-01-07T16:19:00.229Z,10.13
2018-01-07T16:24:03.711Z,8.97
2018-01-07T16:29:06.950Z,9.47
2018-01-07T16:34:10.400Z,10.70
2018-01-07T16:39:14.164Z,8.33
2018-01-07T16:44:16.864Z,10.67
2018-01-07T16:49:20.541Z,8.77
2018-01-07T16:54:23.248Z,8.70
2018-01-07T16:59:27.276Z,7.73
2018-01-07T17:04:29.959Z,9.87
2018-01-07T17:09:34.204Z,7.63
2018-01-07T17:14:36.913Z,8.40
2018-01-07T17:19:40.336Z,8.13
2018-01-07T17:24:43.138Z,8.73
2018-01-07T17:29:46.728Z,9.30
2018-01-07T17:34:50.202Z,8.47
2018-01-07T17:39:52.981Z,7.93
2018-01-07T17:44:56.310Z,8.10
2018-01-07T17:49:59.760Z,9.53
2018-01-07T17:55:02.526Z,8.07
2018-01-07T18:00:06.255Z,8.93
2018-01-07T18:05:09.468Z,8.47
2018-01-07T18:10:12.579Z,9.90
2018-01-07T18:15:15.399Z,10.53
2018-01-07T18:20:19.297Z,9.87
2018-01-07T18:25:22.090Z,10.70
2018-01-07T18:30:25.091Z,13.37
2018-01-07T18:35:27.903Z,9.53
2018-01-07T18:40:31.042Z,10.37
2018-01-07T18:45:33.912Z,10.40
2018-01-07T18:50:37.065Z,10.20
2018-01-07T20:29:12.410Z,15.10
2018-01-07T20:34:15.689Z,16.00
2018-01-07T20:39:19.530Z,14.90
2018-01-07T20:44:22.221Z,16.57
2018-01-07T20:49:25.670Z,15.97
2018-01-07T20:59:56.111Z,16.93
2018-01-07T21:04:58.873Z,16.63
2018-01-07T21:10:01.662Z,16.50
2018-01-07T21:15:04.378Z,19.67
2018-01-07T21:20:08.175Z,17.93
2018-01-07T21:25:11.059Z,19.30
2018-01-07T21:30:14.684Z,18.77
2018-01-07T21:35:18.755Z,20.73
2018-01-07T21:40:22.642Z,15.70
2018-01-07T21:45:25.472Z,21.50
2018-01-07T21:50:28.358Z,19.63
2018-01-07T21:55:31.402Z,20.93
2018-01-07T22:06:25.094Z,20.23
2018-01-07T22:11:28.660Z,20.97
2018-01-07T22:16:31.454Z,20.67
2018-01-07T22:21:34.347Z,20.30
2018-01-07T22:26:37.077Z,20.30
2018-01-07T22:31:40.555Z,22.20
2018-01-07T22:36:43.450Z,22.03
2018-01-07T22:41:46.604Z,20.60
2018-01-07T22:46:49.362Z,18.47
2018-01-07T22:51:53.084Z,22.87
2018-01-07T22:56:55.917Z,21.20
2018-01-07T23:01:59.369Z,28.07
2018-01-07T23:07:02.142Z,25.30
2018-01-07T23:12:06.093Z,21.23
2018-01-07T23:17:08.834Z,23.30
2018-01-07T23:22:11.950Z,25.27
2018-01-07T23:27:14.650Z,21.83
2018-01-07T23:32:17.576Z,24.60
2018-01-07T23:37:20.355Z,25.43
2018-01-07T23:42:24.080Z,27.10
2018-01-07T23:47:26.793Z,25.63
2018-01-07T23:52:30.332Z,24.30
2018-01-07T23:57:32.964Z,27.13
